createdAt,value
2019-03-17T00:00:32.786Z,3.22
2019-03-17T00:01:36.873Z,3.22
2019-03-17T00:02:41.068Z,3.21
2019-03-17T00:03:45.076Z,3.21
2019-03-17T00:04:49.221Z,3.21
2019-03-17T00:05:53.244Z,3.20
2019-03-17T00:06:57.272Z,3.22
2019-03-17T00:08:02.229Z,3.21
2019-03-17T00:09:07.507Z,3.20
2019-03-17T00:10:11.905Z,3.21
2019-03-17T00:11:16.092Z,3.21
2019-03-17T00:12:20.181Z,3.20
2019-03-17T00:13:24.304Z,3.20
2019-03-17T00:14:28.486Z,3.20
2019-03-17T00:15:32.569Z,3.20
2019-03-17T00:16:36.633Z,3.20
2019-03-17T00:17:41.856Z,3.20
2019-03-17T00:18:44.828Z,3.19
2019-03-17T00:19:48.913Z,3.19
2019-03-17T00:20:52.954Z,3.18
2019-03-17T00:21:56.994Z,3.19
2019-03-17T00:23:01.053Z,3.18
2019-03-17T00:24:05.216Z,3.19
2019-03-17T00:25:10.254Z,3.18
2019-03-17T00:26:13.502Z,3.17
2019-03-17T00:27:17.697Z,3.18
2019-03-17T00:28:21.685Z,3.18
2019-03-17T00:29:26.039Z,3.19
2019-03-17T00:30:30.332Z,3.19
2019-03-17T00:31:34.666Z,3.18
2019-03-17T00:32:39.072Z,3.15
2019-03-17T00:33:43.585Z,3.16
2019-03-17T00:34:50.755Z,3.13
2019-03-17T00:35:52.486Z,3.15
2019-03-17T00:36:56.725Z,3.00
2019-03-17T00:38:00.929Z,3.00
2019-03-17T00:39:06.370Z,3.01
2019-03-17T00:40:10.555Z,3.03
2019-03-17T00:41:14.660Z,3.03
2019-03-17T00:42:18.844Z,3.01
2019-03-17T00:43:22.869Z,3.01
2019-03-17T00:44:26.857Z,3.00
2019-03-17T00:45:30.977Z,2.99
2019-03-17T00:46:35.071Z,3.01
2019-03-17T00:47:39.179Z,3.00
2019-03-17T00:48:43.221Z,3.02
2019-03-17T00:49:47.393Z,3.03
2019-03-17T00:50:51.461Z,3.04
2019-03-17T00:51:55.556Z,3.03
2019-03-17T00:52:59.638Z,3.04
2019-03-17T00:54:03.706Z,3.06
2019-03-17T00:55:07.897Z,3.06
2019-03-17T00:56:12.007Z,3.07
2019-03-17T00:57:16.056Z,3.06
2019-03-17T00:58:20.231Z,3.07
2019-03-17T00:59:24.296Z,3.07
2019-03-17T01:00:28.505Z,3.08
2019-03-17T01:01:32.698Z,3.07
2019-03-17T01:02:36.792Z,3.08
2019-03-17T01:03:41.084Z,3.08
2019-03-17T01:04:55.666Z,3.10
2019-03-17T01:05:49.904Z,3.09
2019-03-17T01:06:54.388Z,3.04
2019-03-17T01:07:58.878Z,3.06
2019-03-17T01:09:03.426Z,3.06
2019-03-17T01:10:07.637Z,3.05
2019-03-17T01:11:11.687Z,3.07
2019-03-17T01:12:15.954Z,3.06
2019-03-17T01:13:20.142Z,3.07
2019-03-17T01:14:24.195Z,3.06
2019-03-17T01:15:28.256Z,3.06
2019-03-17T01:16:32.349Z,3.07
2019-03-17T01:17:36.429Z,3.08
2019-03-17T01:18:40.486Z,3.08
2019-03-17T01:19:44.561Z,3.09
2019-03-17T01:20:48.638Z,3.10
2019-03-17T01:21:52.746Z,3.10
2019-03-17T01:22:56.880Z,3.10
2019-03-17T01:24:00.957Z,3.10
2019-03-17T01:25:05.546Z,3.10
2019-03-17T01:26:09.564Z,3.12
2019-03-17T01:27:13.599Z,3.11
2019-03-17T01:28:17.754Z,3.13
2019-03-17T01:29:21.873Z,3.10
2019-03-17T01:30:25.948Z,3.12
2019-03-17T01:31:30.042Z,3.14
2019-03-17T01:32:34.100Z,3.12
2019-03-17T01:33:38.217Z,3.12
2019-03-17T01:34:42.261Z,3.12
2019-03-17T01:35:46.296Z,3.13
2019-03-17T01:36:50.355Z,3.11
2019-03-17T01:37:54.793Z,3.10
2019-03-17T01:38:58.918Z,3.09
2019-03-17T01:40:02.982Z,3.02
2019-03-17T01:41:07.090Z,3.08
2019-03-17T01:42:11.179Z,3.09
2019-03-17T01:43:21.677Z,3.04
2019-03-17T01:44:25.834Z,3.08
2019-03-17T01:45:29.913Z,3.07
2019-03-17T01:46:34.547Z,3.09
2019-03-17T01:47:38.720Z,3.08
2019-03-17T01:48:42.898Z,3.07
2019-03-17T01:49:47.005Z,3.09
2019-03-17T01:50:51.055Z,3.08
2019-03-17T01:51:55.161Z,3.03
2019-03-17T01:52:59.263Z,3.09
2019-03-17T01:54:03.383Z,3.08
2019-03-17T01:55:07.597Z,3.09
2019-03-17T01:56:11.675Z,3.08
2019-03-17T01:57:15.698Z,3.09
2019-03-17T01:58:19.726Z,3.06
2019-03-17T01:59:23.792Z,3.02
2019-03-17T02:00:28.056Z,3.02
2019-03-17T02:01:32.273Z,3.04
2019-03-17T02:02:36.589Z,3.01
2019-03-17T02:03:40.630Z,3.02
2019-03-17T02:04:44.689Z,3.03
2019-03-17T02:05:48.761Z,3.01
2019-03-17T02:06:52.829Z,2.94
2019-03-17T02:07:56.865Z,2.96
2019-03-17T02:09:00.888Z,2.95
2019-03-17T02:10:05.092Z,2.94
2019-03-17T02:11:09.176Z,2.94
2019-03-17T02:12:13.263Z,2.87
2019-03-17T02:13:17.329Z,2.92
2019-03-17T02:14:21.359Z,2.89
2019-03-17T02:15:25.385Z,2.91
2019-03-17T02:16:29.408Z,2.83
2019-03-17T02:17:33.449Z,2.85
2019-03-17T02:18:37.471Z,2.81
2019-03-17T02:19:41.507Z,2.78
2019-03-17T02:20:45.529Z,2.79
2019-03-17T02:21:49.550Z,2.76
2019-03-17T02:22:53.604Z,2.76
2019-03-17T02:23:57.644Z,2.77
2019-03-17T02:25:01.651Z,2.78
2019-03-17T02:26:05.745Z,2.78
2019-03-17T02:27:09.888Z,2.77
2019-03-17T02:28:13.908Z,2.77
2019-03-17T02:29:18.097Z,2.78
2019-03-17T02:30:22.200Z,2.78
2019-03-17T02:31:26.216Z,2.79
2019-03-17T02:32:30.247Z,2.79
2019-03-17T02:33:34.258Z,2.79
2019-03-17T02:34:38.293Z,2.76
2019-03-17T02:35:42.446Z,2.75
2019-03-17T02:36:46.548Z,2.76
2019-03-17T02:37:50.732Z,2.73
2019-03-17T02:38:54.778Z,2.74
2019-03-17T02:39:58.850Z,2.74
2019-03-17T02:41:02.849Z,2.73
2019-03-17T02:42:06.953Z,2.74
2019-03-17T02:43:11.053Z,2.75
2019-03-17T02:44:15.156Z,2.74
2019-03-17T02:45:19.193Z,2.74
2019-03-17T02:46:23.204Z,2.72
2019-03-17T02:47:27.215Z,2.70
2019-03-17T02:48:31.292Z,2.68
2019-03-17T02:49:35.365Z,2.70
2019-03-17T02:50:39.426Z,2.68
2019-03-17T02:51:43.528Z,2.68
2019-03-17T02:52:47.554Z,2.69
2019-03-17T02:53:51.600Z,2.64
2019-03-17T02:54:55.686Z,2.64
2019-03-17T02:55:59.759Z,2.65
2019-03-17T02:57:03.863Z,2.61
2019-03-17T02:58:07.899Z,2.63
2019-03-17T02:59:11.955Z,2.65
2019-03-17T03:00:18.442Z,2.65
2019-03-17T03:01:20.170Z,2.66
2019-03-17T03:02:24.227Z,2.66
2019-03-17T03:03:28.257Z,2.67
2019-03-17T03:04:32.268Z,2.65
2019-03-17T03:05:36.346Z,2.68
2019-03-17T03:06:40.450Z,2.68
2019-03-17T03:07:44.525Z,2.70
2019-03-17T03:08:48.638Z,2.68
2019-03-17T03:09:52.742Z,2.68
2019-03-17T03:10:56.827Z,2.69
2019-03-17T03:12:00.900Z,2.68
2019-03-17T03:13:04.958Z,2.68
2019-03-17T03:14:09.057Z,2.69
2019-03-17T03:15:13.182Z,2.71
2019-03-17T03:16:17.166Z,2.68
2019-03-17T03:17:21.193Z,2.72
2019-03-17T03:18:25.232Z,2.71
2019-03-17T03:19:29.204Z,2.67
2019-03-17T03:20:33.307Z,2.71
2019-03-17T03:21:37.350Z,2.74
2019-03-17T03:22:41.407Z,2.74
2019-03-17T03:23:45.493Z,2.71
2019-03-17T03:24:49.515Z,2.73
2019-03-17T03:25:53.575Z,2.79
2019-03-17T03:26:57.635Z,2.80
2019-03-17T03:28:01.704Z,2.80
2019-03-17T03:29:05.772Z,2.82
2019-03-17T03:30:10.053Z,2.83
2019-03-17T03:31:14.257Z,2.80
2019-03-17T03:32:18.349Z,2.80
2019-03-17T03:33:22.498Z,2.78
2019-03-17T03:34:26.534Z,2.81
2019-03-17T03:35:30.608Z,2.77
2019-03-17T03:36:34.666Z,2.79
2019-03-17T03:37:38.739Z,2.78
2019-03-17T03:38:42.794Z,2.77
2019-03-17T03:39:46.839Z,2.77
2019-03-17T03:40:50.875Z,2.80
2019-03-17T03:41:54.949Z,2.79
2019-03-17T03:42:59.378Z,2.79
2019-03-17T03:44:03.513Z,2.76
2019-03-17T03:45:08.045Z,2.71
2019-03-17T03:46:12.070Z,2.74
2019-03-17T03:47:16.131Z,2.74
2019-03-17T03:48:20.194Z,2.78
2019-03-17T03:49:24.280Z,2.78
2019-03-17T03:50:28.373Z,2.79
2019-03-17T03:51:32.419Z,2.79
2019-03-17T03:52:36.521Z,2.81
2019-03-17T03:53:40.624Z,2.82
2019-03-17T03:54:44.697Z,2.85
2019-03-17T03:55:48.778Z,2.84
2019-03-17T03:56:52.912Z,2.85
2019-03-17T03:57:57.969Z,2.84
2019-03-17T03:59:02.078Z,2.83
2019-03-17T04:00:06.870Z,2.85
2019-03-17T04:01:10.955Z,2.86
2019-03-17T04:02:15.009Z,2.91
2019-03-17T04:03:19.290Z,2.87
2019-03-17T04:04:23.346Z,2.89
2019-03-17T04:05:27.395Z,2.84
2019-03-17T04:06:31.429Z,2.84
2019-03-17T04:07:35.521Z,2.83
2019-03-17T04:08:39.688Z,2.82
2019-03-17T04:09:43.740Z,2.78
2019-03-17T04:10:47.799Z,2.81
2019-03-17T04:11:51.889Z,2.84
2019-03-17T04:12:56.061Z,2.82
2019-03-17T04:14:00.129Z,2.81
2019-03-17T04:15:05.281Z,2.82
2019-03-17T04:16:09.294Z,2.83
2019-03-17T04:17:13.383Z,2.82
2019-03-17T04:18:18.301Z,2.83
2019-03-17T04:19:22.532Z,2.83
2019-03-17T04:20:26.581Z,2.83
2019-03-17T04:21:30.705Z,2.84
2019-03-17T04:22:34.816Z,2.84
2019-03-17T04:23:38.910Z,2.85
2019-03-17T04:24:43.209Z,2.86
2019-03-17T04:25:47.315Z,2.85
2019-03-17T04:26:52.193Z,2.85
2019-03-17T04:27:56.315Z,2.83
2019-03-17T04:29:00.482Z,2.86
2019-03-17T04:30:04.765Z,2.84
2019-03-17T04:31:08.870Z,2.85
2019-03-17T04:32:13.241Z,2.85
2019-03-17T04:33:17.394Z,2.85
2019-03-17T04:34:21.424Z,2.86
2019-03-17T04:35:25.533Z,2.87
2019-03-17T04:36:39.477Z,2.84
2019-03-17T04:37:33.786Z,2.85
2019-03-17T04:38:37.904Z,2.87
2019-03-17T04:39:42.353Z,2.85
2019-03-17T04:40:46.895Z,2.87
2019-03-17T04:41:50.882Z,2.85
2019-03-17T04:42:54.911Z,2.83
2019-03-17T04:43:58.989Z,2.84
2019-03-17T04:45:03.124Z,2.84
2019-03-17T04:46:07.344Z,2.85
2019-03-17T04:47:11.431Z,2.81
2019-03-17T04:48:15.433Z,2.82
2019-03-17T04:49:19.474Z,2.81
2019-03-17T04:50:23.505Z,2.80
2019-03-17T04:51:27.602Z,2.79
2019-03-17T04:52:31.700Z,2.78
2019-03-17T04:53:35.721Z,2.78
2019-03-17T04:54:39.737Z,2.80
2019-03-17T04:55:43.726Z,2.81
2019-03-17T04:56:47.790Z,2.87
2019-03-17T04:57:51.816Z,2.78
2019-03-17T04:58:55.854Z,2.82
2019-03-17T05:00:00.028Z,2.81
2019-03-17T05:01:04.210Z,2.83
2019-03-17T05:02:08.569Z,2.81
2019-03-17T05:03:12.601Z,2.82
2019-03-17T05:04:16.679Z,2.81
2019-03-17T05:05:20.730Z,2.80
2019-03-17T05:06:24.834Z,2.82
2019-03-17T05:07:28.955Z,2.83
2019-03-17T05:08:33.101Z,2.82
2019-03-17T05:09:37.199Z,2.81
2019-03-17T05:10:41.269Z,2.79
2019-03-17T05:11:45.762Z,2.80
2019-03-17T05:12:50.306Z,2.81
2019-03-17T05:13:54.628Z,2.80
2019-03-17T05:14:58.983Z,2.78
2019-03-17T05:16:03.374Z,2.80
2019-03-17T05:17:07.572Z,2.81
2019-03-17T05:18:11.744Z,2.81
2019-03-17T05:19:15.805Z,2.82
2019-03-17T05:20:19.924Z,2.80
2019-03-17T05:21:24.115Z,2.81
2019-03-17T05:22:28.129Z,2.82
2019-03-17T05:23:32.256Z,2.82
2019-03-17T05:24:36.701Z,2.80
2019-03-17T05:25:40.829Z,2.82
2019-03-17T05:26:45.297Z,2.82
2019-03-17T05:27:49.521Z,2.83
2019-03-17T05:28:53.783Z,2.83
2019-03-17T05:29:58.120Z,2.85
2019-03-17T05:31:02.187Z,2.83
2019-03-17T05:32:06.556Z,2.82
2019-03-17T05:33:10.619Z,2.83
2019-03-17T05:34:14.742Z,2.84
2019-03-17T05:35:18.792Z,2.83
2019-03-17T05:36:23.018Z,2.84
2019-03-17T05:37:27.497Z,2.85
2019-03-17T05:38:31.709Z,2.84
2019-03-17T05:39:35.834Z,2.85
2019-03-17T05:40:39.961Z,2.87
2019-03-17T05:41:44.286Z,2.87
2019-03-17T05:42:48.728Z,2.89
2019-03-17T05:43:53.019Z,2.91
2019-03-17T05:44:57.378Z,2.85
2019-03-17T05:46:01.468Z,2.86
2019-03-17T05:47:05.753Z,2.81
2019-03-17T05:48:09.987Z,2.83
2019-03-17T05:49:14.211Z,2.83
2019-03-17T05:50:18.433Z,2.83
2019-03-17T05:51:22.519Z,2.85
2019-03-17T05:52:26.612Z,2.82
2019-03-17T05:53:31.770Z,2.82
2019-03-17T05:54:35.865Z,2.84
2019-03-17T05:55:39.995Z,2.79
2019-03-17T05:56:44.116Z,2.82
2019-03-17T05:57:48.656Z,2.83
2019-03-17T05:58:52.750Z,2.86
2019-03-17T05:59:56.889Z,2.83
2019-03-17T06:01:01.302Z,2.87
2019-03-17T06:02:07.179Z,2.86
2019-03-17T06:03:11.354Z,2.83
2019-03-17T06:04:15.655Z,2.81
2019-03-17T06:05:19.797Z,2.81
2019-03-17T06:06:24.019Z,2.78
2019-03-17T06:07:28.350Z,2.80
2019-03-17T06:08:33.657Z,2.73
2019-03-17T06:09:37.069Z,2.80
2019-03-17T06:10:43.160Z,2.70
2019-03-17T06:11:48.005Z,2.76
2019-03-17T06:12:52.438Z,2.76
2019-03-17T06:13:57.125Z,2.76
2019-03-17T06:15:01.407Z,2.75
2019-03-17T06:16:05.717Z,2.77
2019-03-17T06:17:10.660Z,2.76
2019-03-17T06:18:14.676Z,2.76
2019-03-17T06:19:18.700Z,2.73
2019-03-17T06:20:22.741Z,2.73
2019-03-17T06:21:26.765Z,2.75
2019-03-17T06:22:30.940Z,2.77
2019-03-17T06:23:35.067Z,2.79
2019-03-17T06:24:39.089Z,2.80
2019-03-17T06:25:43.165Z,2.84
2019-03-17T06:26:47.218Z,2.87
2019-03-17T06:27:52.190Z,2.82
2019-03-17T06:28:58.148Z,2.84
2019-03-17T06:30:02.704Z,2.83
2019-03-17T06:31:07.244Z,2.83
2019-03-17T06:32:11.709Z,2.75
2019-03-17T06:33:16.036Z,2.77
2019-03-17T06:34:20.529Z,2.78
2019-03-17T06:35:24.589Z,2.74
2019-03-17T06:36:29.353Z,2.77
2019-03-17T06:37:33.863Z,2.84
2019-03-17T06:38:39.112Z,2.83
2019-03-17T06:39:43.402Z,2.83
2019-03-17T06:40:47.463Z,2.82
2019-03-17T06:41:51.769Z,2.81
2019-03-17T06:42:56.056Z,2.83
2019-03-17T06:44:00.754Z,2.86
2019-03-17T06:45:07.686Z,2.91
2019-03-17T06:46:11.931Z,2.90
2019-03-17T06:47:17.080Z,2.90
2019-03-17T06:48:22.938Z,2.93
2019-03-17T06:49:27.187Z,2.96
2019-03-17T06:50:32.865Z,2.95
2019-03-17T06:51:37.666Z,2.95
2019-03-17T06:52:42.057Z,2.91
2019-03-17T06:53:55.777Z,2.93
2019-03-17T06:54:51.388Z,2.94
2019-03-17T06:55:56.453Z,2.98
2019-03-17T06:57:00.630Z,2.92
2019-03-17T06:58:05.457Z,2.94
2019-03-17T06:59:12.201Z,2.91
2019-03-17T07:00:17.228Z,2.96
2019-03-17T07:01:21.292Z,2.98
2019-03-17T07:02:25.569Z,2.91
2019-03-17T07:03:31.641Z,2.94
2019-03-17T07:04:42.416Z,2.98
2019-03-17T07:05:48.687Z,2.93
2019-03-17T07:06:53.166Z,2.93
2019-03-17T07:07:57.488Z,2.97
2019-03-17T07:09:01.627Z,2.96
2019-03-17T07:10:06.181Z,2.97
2019-03-17T07:11:17.440Z,2.99
2019-03-17T07:12:21.770Z,2.82
2019-03-17T07:13:26.386Z,2.78
2019-03-17T07:14:31.093Z,2.83
2019-03-17T07:15:35.165Z,2.76
2019-03-17T07:16:39.291Z,2.77
2019-03-17T07:17:44.206Z,2.75
2019-03-17T07:18:50.096Z,2.80
2019-03-17T07:19:54.247Z,2.80
2019-03-17T07:20:59.332Z,2.83
2019-03-17T07:22:04.462Z,2.84
2019-03-17T07:23:08.765Z,2.81
2019-03-17T07:24:13.181Z,2.84
2019-03-17T07:25:22.647Z,2.84
2019-03-17T07:26:26.991Z,2.79
2019-03-17T07:27:31.397Z,2.79
2019-03-17T07:28:38.550Z,2.75
2019-03-17T07:29:42.855Z,2.79
2019-03-17T07:30:47.075Z,2.78
2019-03-17T07:31:51.268Z,2.78
2019-03-17T07:32:55.485Z,2.80
2019-03-17T07:34:00.079Z,2.77
2019-03-17T07:35:09.316Z,2.82
2019-03-17T07:36:14.759Z,2.89
2019-03-17T07:37:19.215Z,2.82
2019-03-17T07:38:23.433Z,2.76
2019-03-17T07:39:27.661Z,2.68
2019-03-17T07:40:32.294Z,2.69
2019-03-17T07:41:36.466Z,2.68
2019-03-17T07:42:40.802Z,2.68
2019-03-17T07:43:45.128Z,2.73
2019-03-17T07:44:49.664Z,2.76
2019-03-17T07:45:53.852Z,2.74
2019-03-17T07:47:00.575Z,2.74
2019-03-17T07:48:04.756Z,2.70
2019-03-17T07:49:08.906Z,2.75
2019-03-17T07:50:13.171Z,2.63
2019-03-17T07:51:17.264Z,2.74
2019-03-17T07:52:21.366Z,2.60
2019-03-17T07:53:25.535Z,2.63
2019-03-17T07:54:30.253Z,2.61
2019-03-17T07:55:34.362Z,2.61
2019-03-17T07:56:38.710Z,2.56
2019-03-17T07:57:42.927Z,2.63
2019-03-17T07:58:47.240Z,2.68
2019-03-17T07:59:51.369Z,2.65
2019-03-17T08:00:55.573Z,2.67
2019-03-17T08:01:59.683Z,2.68
2019-03-17T08:03:03.786Z,2.68
2019-03-17T08:04:07.882Z,2.67
2019-03-17T08:05:11.959Z,2.72
2019-03-17T08:06:16.203Z,2.77
2019-03-17T08:07:30.320Z,2.74
2019-03-17T08:08:34.515Z,2.80
2019-03-17T08:09:38.679Z,2.82
2019-03-17T08:10:42.729Z,2.86
2019-03-17T08:11:47.163Z,2.86
2019-03-17T08:12:51.231Z,2.89
2019-03-17T08:13:55.440Z,2.89
2019-03-17T08:14:59.975Z,2.85
2019-03-17T08:16:04.168Z,2.83
2019-03-17T08:17:08.390Z,2.90
2019-03-17T08:18:12.560Z,2.82
2019-03-17T08:19:16.906Z,2.93
2019-03-17T08:20:21.506Z,2.96
2019-03-17T08:21:25.650Z,2.94
2019-03-17T08:22:29.727Z,2.99
2019-03-17T08:23:34.204Z,3.06
2019-03-17T08:24:38.428Z,3.07
2019-03-17T08:25:42.589Z,3.16
2019-03-17T08:26:50.021Z,3.21
2019-03-17T08:27:52.200Z,3.27
2019-03-17T08:28:57.099Z,3.30
2019-03-17T08:30:01.843Z,3.34
2019-03-17T08:31:06.312Z,3.30
2019-03-17T08:32:11.042Z,3.32
2019-03-17T08:33:15.242Z,3.39
2019-03-17T08:34:19.346Z,3.42
2019-03-17T08:35:23.548Z,3.36
2019-03-17T08:36:27.937Z,3.50
2019-03-17T08:37:32.144Z,3.55
2019-03-17T08:38:36.987Z,3.51
2019-03-17T08:39:41.338Z,3.46
2019-03-17T08:40:45.583Z,3.51
2019-03-17T08:41:49.860Z,3.51
2019-03-17T08:42:54.055Z,3.62
2019-03-17T08:43:58.208Z,3.82
2019-03-17T08:45:02.408Z,4.03
2019-03-17T08:46:06.551Z,4.23
2019-03-17T08:47:10.825Z,4.40
2019-03-17T08:48:15.065Z,4.50
2019-03-17T08:49:19.202Z,4.56
2019-03-17T08:50:23.949Z,4.63
2019-03-17T08:51:28.245Z,4.64
2019-03-17T08:52:34.550Z,4.63
2019-03-17T08:53:38.520Z,4.63
2019-03-17T08:54:44.557Z,4.63
2019-03-17T08:55:48.987Z,4.53
2019-03-17T08:56:54.155Z,4.60
2019-03-17T08:57:58.562Z,4.59
2019-03-17T08:59:03.770Z,4.59
2019-03-17T09:00:09.876Z,4.61
2019-03-17T09:01:14.205Z,4.58
2019-03-17T09:02:19.478Z,4.66
2019-03-17T09:03:23.720Z,4.74
2019-03-17T09:04:28.806Z,4.85
2019-03-17T09:05:35.126Z,4.92
2019-03-17T09:06:39.695Z,4.95
2019-03-17T09:07:44.172Z,4.99
2019-03-17T09:08:49.688Z,4.94
2019-03-17T09:09:54.101Z,4.90
2019-03-17T09:10:59.325Z,4.91
2019-03-17T09:12:04.521Z,4.82
2019-03-17T09:13:09.192Z,4.82
2019-03-17T09:14:14.526Z,4.88
2019-03-17T09:15:19.324Z,4.87
2019-03-17T09:16:25.687Z,4.84
2019-03-17T09:17:29.912Z,4.71
2019-03-17T09:18:35.220Z,4.74
2019-03-17T09:19:39.548Z,4.76
2019-03-17T09:20:44.457Z,4.77
2019-03-17T09:21:48.678Z,4.77
2019-03-17T09:22:52.971Z,4.85
2019-03-17T09:23:57.199Z,4.83
2019-03-17T09:25:01.485Z,4.90
2019-03-17T09:26:06.667Z,4.98
2019-03-17T09:27:11.991Z,5.07
2019-03-17T09:28:16.697Z,5.08
2019-03-17T09:29:21.339Z,5.05
2019-03-17T09:30:26.660Z,5.00
2019-03-17T09:31:31.094Z,5.08
2019-03-17T09:32:36.837Z,5.15
2019-03-17T09:33:41.023Z,5.23
2019-03-17T09:34:45.635Z,5.22
2019-03-17T09:35:52.558Z,5.34
2019-03-17T09:36:57.543Z,5.43
2019-03-17T09:38:02.858Z,5.39
2019-03-17T09:39:08.543Z,5.37
2019-03-17T09:40:14.592Z,5.42
2019-03-17T09:41:19.199Z,5.50
2019-03-17T09:42:23.350Z,5.49
2019-03-17T09:43:27.666Z,5.46
2019-03-17T09:44:31.815Z,5.34
2019-03-17T09:45:36.888Z,5.46
2019-03-17T09:46:41.476Z,5.46
2019-03-17T09:47:46.260Z,5.48
2019-03-17T09:48:50.853Z,5.53
2019-03-17T09:49:55.056Z,5.58
2019-03-17T09:50:59.176Z,5.60
2019-03-17T09:52:03.362Z,5.51
2019-03-17T09:53:07.488Z,5.56
2019-03-17T09:54:14.659Z,5.56
2019-03-17T09:55:19.007Z,5.56
2019-03-17T09:56:23.123Z,5.61
2019-03-17T09:57:27.493Z,5.49
2019-03-17T09:58:31.581Z,5.53
2019-03-17T09:59:35.904Z,5.56
2019-03-17T10:00:40.627Z,5.59
2019-03-17T10:01:45.053Z,5.71
2019-03-17T10:02:49.470Z,5.83
2019-03-17T10:03:54.226Z,5.88
2019-03-17T10:04:58.517Z,5.91
2019-03-17T10:06:02.878Z,5.89
2019-03-17T10:07:06.999Z,5.87
2019-03-17T10:08:11.313Z,5.93
2019-03-17T10:09:15.611Z,5.96
2019-03-17T10:10:19.763Z,5.97
2019-03-17T10:11:24.217Z,5.99
2019-03-17T10:12:28.443Z,5.97
2019-03-17T10:13:32.644Z,5.96
2019-03-17T10:14:36.979Z,6.00
2019-03-17T10:15:41.130Z,6.10
2019-03-17T10:16:45.213Z,6.24
2019-03-17T10:17:49.508Z,6.33
2019-03-17T10:18:53.695Z,6.46
2019-03-17T10:19:57.787Z,6.59
2019-03-17T10:21:02.170Z,6.55
2019-03-17T10:22:06.331Z,6.60
2019-03-17T10:23:10.619Z,6.61
2019-03-17T10:24:14.734Z,6.66
2019-03-17T10:25:18.980Z,6.68
2019-03-17T10:26:23.113Z,6.55
2019-03-17T10:27:27.280Z,6.60
2019-03-17T10:28:31.438Z,6.66
2019-03-17T10:29:36.145Z,6.68
2019-03-17T10:30:40.382Z,6.74
2019-03-17T10:31:44.486Z,6.81
2019-03-17T10:32:48.585Z,6.85
2019-03-17T10:33:52.952Z,6.81
2019-03-17T10:34:57.425Z,6.80
2019-03-17T10:36:01.631Z,6.71
2019-03-17T10:37:06.120Z,6.74
2019-03-17T10:38:10.618Z,6.73
2019-03-17T10:39:14.773Z,6.69
2019-03-17T10:40:19.142Z,6.61
2019-03-17T10:41:23.252Z,6.71
2019-03-17T10:42:27.432Z,6.65
2019-03-17T10:43:32.065Z,6.63
2019-03-17T10:44:36.334Z,6.71
2019-03-17T10:45:40.575Z,6.77
2019-03-17T10:46:44.814Z,6.85
2019-03-17T10:47:49.131Z,6.91
2019-03-17T10:48:53.304Z,7.05
2019-03-17T10:49:57.532Z,7.04
2019-03-17T10:51:01.824Z,7.10
2019-03-17T10:52:06.194Z,7.16
2019-03-17T10:53:10.451Z,7.14
2019-03-17T10:54:15.100Z,7.22
2019-03-17T10:55:18.974Z,7.24
2019-03-17T10:56:23.293Z,7.19
2019-03-17T10:57:27.487Z,7.25
2019-03-17T10:58:31.789Z,7.40
2019-03-17T10:59:36.153Z,7.57
2019-03-17T11:00:40.321Z,7.79
2019-03-17T11:01:44.601Z,7.85
2019-03-17T11:02:48.930Z,8.00
2019-03-17T11:03:53.814Z,8.09
2019-03-17T11:04:58.147Z,8.08
2019-03-17T11:06:02.331Z,8.06
2019-03-17T11:07:06.696Z,8.06
2019-03-17T11:08:10.892Z,8.07
2019-03-17T11:09:24.730Z,8.04
2019-03-17T11:10:19.818Z,7.94
2019-03-17T11:11:24.135Z,7.91
2019-03-17T11:12:28.903Z,7.84
2019-03-17T11:13:33.534Z,8.03
2019-03-17T11:14:37.821Z,8.17
2019-03-17T11:15:42.166Z,8.39
2019-03-17T11:16:46.376Z,8.44
2019-03-17T11:17:50.626Z,8.53
2019-03-17T11:18:55.058Z,8.52
2019-03-17T11:20:00.026Z,8.58
2019-03-17T11:21:05.387Z,8.73
2019-03-17T11:22:10.965Z,8.80
2019-03-17T11:23:16.223Z,8.83
2019-03-17T11:24:29.585Z,8.80
2019-03-17T11:25:34.066Z,8.90
2019-03-17T11:26:38.619Z,9.02
2019-03-17T11:27:42.977Z,9.02
2019-03-17T11:28:47.388Z,9.20
2019-03-17T11:29:51.649Z,9.40
2019-03-17T11:30:59.173Z,9.65
2019-03-17T11:32:06.338Z,9.71
2019-03-17T11:33:07.695Z,9.84
2019-03-17T11:34:12.066Z,9.93
2019-03-17T11:35:16.858Z,9.90
2019-03-17T11:36:21.153Z,10.03
2019-03-17T11:37:25.371Z,9.83
2019-03-17T11:38:29.683Z,9.67
2019-03-17T11:39:38.047Z,9.83
2019-03-17T11:40:38.276Z,10.07
2019-03-17T11:41:42.652Z,10.19
2019-03-17T11:42:49.544Z,10.30
2019-03-17T11:43:51.302Z,10.31
2019-03-17T11:44:55.500Z,10.41
2019-03-17T11:46:00.064Z,10.42
2019-03-17T11:47:04.399Z,10.11
2019-03-17T11:48:08.684Z,10.23
2019-03-17T11:49:13.070Z,10.01
2019-03-17T11:50:17.313Z,9.86
2019-03-17T11:51:21.492Z,9.78
2019-03-17T11:52:25.872Z,9.74
2019-03-17T11:53:30.052Z,9.58
2019-03-17T11:54:34.288Z,9.43
2019-03-17T11:55:38.498Z,9.35
2019-03-17T11:56:42.850Z,9.08
2019-03-17T11:57:47.477Z,9.10
2019-03-17T11:58:51.603Z,8.94
2019-03-17T11:59:56.206Z,8.89
2019-03-17T12:01:00.927Z,8.83
2019-03-17T12:02:05.758Z,8.59
2019-03-17T12:03:09.961Z,8.53
2019-03-17T12:04:14.506Z,8.49
2019-03-17T12:05:19.048Z,8.49
2019-03-17T12:06:24.068Z,8.45
2019-03-17T12:07:28.290Z,8.33
2019-03-17T12:08:32.590Z,8.25
2019-03-17T12:09:45.575Z,8.21
2019-03-17T12:10:41.158Z,8.07
2019-03-17T12:11:45.358Z,7.98
2019-03-17T12:12:50.775Z,8.01
2019-03-17T12:13:54.970Z,7.84
2019-03-17T12:14:59.314Z,7.75
2019-03-17T12:16:03.806Z,7.74
2019-03-17T12:17:07.975Z,7.66
2019-03-17T12:18:12.178Z,7.62
2019-03-17T12:19:16.461Z,7.56
2019-03-17T12:20:20.672Z,7.48
2019-03-17T12:21:25.026Z,7.47
2019-03-17T12:22:29.336Z,7.46
2019-03-17T12:23:33.611Z,7.49
2019-03-17T12:24:38.017Z,7.49
2019-03-17T12:25:42.354Z,7.58
2019-03-17T12:26:46.743Z,7.53
2019-03-17T12:27:50.874Z,7.59
2019-03-17T12:28:55.022Z,7.67
2019-03-17T12:29:59.260Z,7.68
2019-03-17T12:31:03.479Z,7.75
2019-03-17T12:32:08.937Z,7.79
2019-03-17T12:33:13.526Z,7.78
2019-03-17T12:34:27.881Z,7.83
2019-03-17T12:35:22.139Z,7.88
2019-03-17T12:36:26.312Z,7.95
2019-03-17T12:37:30.508Z,7.94
2019-03-17T12:38:34.956Z,7.97
2019-03-17T12:39:39.140Z,8.04
2019-03-17T12:40:43.336Z,8.11
2019-03-17T12:41:47.410Z,8.18
2019-03-17T12:42:52.502Z,8.28
2019-03-17T12:43:56.735Z,8.38
2019-03-17T12:45:01.017Z,8.42
2019-03-17T12:46:05.249Z,8.45
2019-03-17T12:47:09.371Z,8.57
2019-03-17T12:48:13.482Z,8.66
2019-03-17T12:49:17.629Z,8.79
2019-03-17T12:50:21.799Z,8.85
2019-03-17T12:51:25.884Z,8.84
2019-03-17T12:52:30.036Z,8.82
2019-03-17T12:53:34.297Z,8.89
2019-03-17T12:54:38.505Z,8.92
2019-03-17T12:55:42.786Z,8.98
2019-03-17T12:56:47.129Z,8.99
2019-03-17T12:57:51.340Z,8.99
2019-03-17T12:58:55.528Z,8.97
2019-03-17T13:00:00.034Z,8.89
2019-03-17T13:01:04.333Z,8.91
2019-03-17T13:02:08.510Z,8.84
2019-03-17T13:03:12.709Z,8.89
2019-03-17T13:04:16.916Z,8.90
2019-03-17T13:05:21.155Z,8.97
2019-03-17T13:06:25.588Z,9.10
2019-03-17T13:07:29.747Z,9.22
2019-03-17T13:08:33.995Z,9.26
2019-03-17T13:09:38.374Z,9.47
2019-03-17T13:10:42.643Z,9.72
2019-03-17T13:11:46.827Z,10.01
2019-03-17T13:12:50.968Z,10.13
2019-03-17T13:13:55.193Z,10.39
2019-03-17T13:14:59.506Z,10.55
2019-03-17T13:16:03.817Z,10.78
2019-03-17T13:17:08.134Z,10.95
2019-03-17T13:18:12.258Z,11.10
2019-03-17T13:19:17.229Z,11.48
2019-03-17T13:20:21.468Z,11.85
2019-03-17T13:21:25.807Z,12.31
2019-03-17T13:22:30.165Z,12.70
2019-03-17T13:23:34.419Z,13.10
2019-03-17T13:24:38.717Z,13.75
2019-03-17T13:25:43.131Z,14.15
2019-03-17T13:26:47.495Z,14.49
2019-03-17T13:27:51.887Z,14.75
2019-03-17T13:28:56.033Z,15.06
2019-03-17T13:30:00.375Z,15.27
2019-03-17T13:31:04.554Z,15.00
2019-03-17T13:32:08.732Z,15.04
2019-03-17T13:33:13.041Z,14.99
2019-03-17T13:34:17.283Z,14.98
2019-03-17T13:35:21.761Z,14.98
2019-03-17T13:36:26.013Z,14.95
2019-03-17T13:37:33.280Z,14.59
2019-03-17T13:38:39.347Z,14.67
2019-03-17T13:39:44.067Z,14.64
2019-03-17T13:40:48.756Z,14.57
2019-03-17T13:41:53.685Z,14.56
2019-03-17T13:42:58.584Z,14.18
2019-03-17T13:44:03.125Z,14.01
2019-03-17T13:45:07.611Z,13.91
2019-03-17T13:46:11.972Z,13.77
2019-03-17T13:47:16.811Z,13.69
2019-03-17T13:48:21.003Z,13.35
2019-03-17T13:49:25.174Z,13.22
2019-03-17T13:50:29.306Z,13.11
2019-03-17T13:51:33.551Z,13.03
2019-03-17T13:52:37.756Z,12.88
2019-03-17T13:53:42.074Z,12.98
2019-03-17T13:54:46.221Z,13.22
2019-03-17T13:55:50.840Z,13.46
2019-03-17T13:56:55.102Z,13.85
2019-03-17T13:57:59.493Z,14.00
2019-03-17T13:59:06.346Z,14.30
2019-03-17T14:00:10.965Z,14.29
2019-03-17T14:01:15.650Z,14.10
2019-03-17T14:02:19.978Z,14.02
2019-03-17T14:03:25.023Z,13.97
2019-03-17T14:04:31.000Z,13.74
2019-03-17T14:05:35.439Z,13.67
2019-03-17T14:06:39.860Z,13.51
2019-03-17T14:07:44.118Z,13.33
2019-03-17T14:08:48.621Z,13.40
2019-03-17T14:09:52.910Z,13.47
2019-03-17T14:10:57.212Z,13.53
2019-03-17T14:12:01.577Z,13.64
2019-03-17T14:13:05.841Z,13.68
2019-03-17T14:14:10.396Z,13.60
2019-03-17T14:15:15.428Z,13.26